createdAt,value
2023-05-10T00:01:44.305Z,100
2023-05-10T00:11:46.196Z,100
2023-05-10T00:21:48.879Z,100
2023-05-10T00:31:51.371Z,100
2023-05-10T00:41:53.214Z,100
2023-05-10T00:51:55.327Z,100
2023-05-10T01:01:57.221Z,100
2023-05-10T01:11:59.371Z,100
2023-05-10T01:22:01.844Z,100
2023-05-10T01:32:03.953Z,100
2023-05-10T01:42:06.084Z,100
2023-05-10T01:52:07.911Z,100
2023-05-10T02:02:10.321Z,100
2023-05-10T02:12:12.306Z,100
2023-05-10T02:22:14.013Z,100
2023-05-10T02:32:16.325Z,100
2023-05-10T02:42:18.657Z,100
2023-05-10T02:52:21.103Z,100
2023-05-10T03:12:25.959Z,100
2023-05-10T03:22:28.469Z,100
2023-05-10T03:42:32.356Z,100
2023-05-10T03:52:34.559Z,100
2023-05-10T04:02:36.850Z,100
2023-05-10T04:12:39.206Z,100
2023-05-10T04:22:40.993Z,100
2023-05-10T04:32:43.441Z,100
2023-05-10T04:42:45.114Z,100
2023-05-10T04:52:46.922Z,100
2023-05-10T05:02:49.390Z,100
2023-05-10T05:12:51.130Z,100
2023-05-10T05:22:53.217Z,100
2023-05-10T05:32:55.616Z,100
2023-05-10T05:42:57.412Z,100
2023-05-10T05:52:59.656Z,100
2023-05-10T06:03:01.920Z,100
2023-05-10T06:13:03.731Z,100
2023-05-10T06:23:05.861Z,100
2023-05-10T06:33:07.794Z,100
2023-05-10T06:43:10.352Z,100
2023-05-10T06:53:12.129Z,100
2023-05-10T07:03:13.879Z,100
2023-05-10T07:13:15.912Z,100
2023-05-10T07:23:17.984Z,100
2023-05-10T07:33:20.306Z,100
2023-05-10T07:43:22.787Z,100
2023-05-10T08:03:27.377Z,100
2023-05-10T08:13:29.692Z,100
2023-05-10T08:23:31.741Z,100
2023-05-10T08:33:34.031Z,100
2023-05-10T08:43:36.032Z,100
2023-05-10T08:53:38.233Z,100
2023-05-10T09:03:40.203Z,100
2023-05-10T09:13:42.391Z,100
2023-05-10T09:23:45.624Z,100
2023-05-10T09:33:46.342Z,100
2023-05-10T09:43:48.804Z,100
2023-05-10T09:53:50.847Z,100
2023-05-10T10:03:53.434Z,100
2023-05-10T10:13:55.582Z,100
2023-05-10T10:23:58.231Z,100
2023-05-10T10:34:00.647Z,100
2023-05-10T10:54:04.592Z,100
2023-05-10T11:04:07.264Z,100
2023-05-10T11:14:09.636Z,100
2023-05-10T11:24:11.750Z,100
2023-05-10T11:44:16.468Z,100
2023-05-10T12:04:21.119Z,100
2023-05-10T12:24:25.849Z,100
2023-05-10T12:44:29.365Z,100
2023-05-10T13:04:32.955Z,100
2023-05-10T13:14:34.823Z,100
2023-05-10T13:24:36.635Z,100
2023-05-10T13:44:41.412Z,100
2023-05-10T14:04:46.009Z,100
2023-05-10T14:24:50.589Z,96
2023-05-10T15:04:58.652Z,86
2023-05-10T15:15:00.863Z,79
2023-05-10T15:25:02.626Z,78
2023-05-10T15:35:04.589Z,84
2023-05-10T15:45:06.572Z,84
2023-05-10T15:55:08.512Z,87
2023-05-10T16:05:10.724Z,90
2023-05-10T16:15:13.214Z,91
2023-05-10T16:25:15.894Z,91
2023-05-10T16:35:18.750Z,92
2023-05-10T16:45:20.700Z,93
2023-05-10T17:05:24.652Z,95
2023-05-10T17:25:29.327Z,96
2023-05-10T17:35:31.646Z,98
2023-05-10T17:45:34.338Z,100
2023-05-10T17:55:36.671Z,100
2023-05-10T18:15:41.464Z,100
2023-05-10T18:25:43.341Z,100
2023-05-10T18:35:45.334Z,100
2023-05-10T18:45:47.009Z,100
2023-05-10T18:55:48.904Z,100
2023-05-10T19:05:50.996Z,100
2023-05-10T21:36:22.677Z,100
